Time;durP1;ratioP1;P1;durP2;ratioP2;P2;SDS_P1;SDS_P2;PMS_P1;PMS_P2;Temp;Humidity;BMP_temperature;BMP_pressure;BME280_temperature;BME280_humidity;BME280_pressure;Samples;Min_cycle;Max_cycle;Signal;HPM_P1;HPM_P2
2021/09/20 00:00:26;;;;;;;10.73;6.70;;;11.90;99.90;;;;;;5150269;27;20460;-64
2021/09/20 00:02:55;;;;;;;8.35;6.45;;;11.80;99.90;;;;;;5150600;27;20046;-63
2021/09/20 00:05:22;;;;;;;8.68;6.72;;;11.70;99.90;;;;;;5151297;27;20077;-64
2021/09/20 00:07:54;;;;;;;12.55;7.35;;;11.70;99.90;;;;;;5147644;27;20058;-63
2021/09/20 00:10:20;;;;;;;11.43;7.32;;;11.60;99.90;;;;;;5151484;27;20070;-63
2021/09/20 00:12:50;;;;;;;11.27;7.57;;;11.50;99.90;;;;;;5150556;27;20046;-61
2021/09/20 00:15:17;;;;;;;8.93;6.65;;;11.40;99.90;;;;;;5124991;27;20168;-63
2021/09/20 00:17:49;;;;;;;10.27;7.35;;;11.40;99.90;;;;;;5143246;27;20079;-63
2021/09/20 00:20:19;;;;;;;9.45;7.20;;;11.30;99.90;;;;;;5150234;27;20059;-64
2021/09/20 00:22:46;;;;;;;9.68;7.13;;;11.30;99.90;;;;;;5152425;27;20133;-64
2021/09/20 00:25:15;;;;;;;11.05;6.75;;;11.20;99.90;;;;;;5149676;27;20062;-64
2021/09/20 00:27:52;;;;;;;13.23;7.95;;;11.20;99.90;;;;;;5150974;27;20046;-64
2021/09/20 00:30:18;;;;;;;11.88;7.60;;;11.10;99.90;;;;;;5151200;27;20479;-63
2021/09/20 00:32:48;;;;;;;12.27;7.93;;;11.10;99.90;;;;;;5150347;27;20134;-63
2021/09/20 00:35:21;;;;;;;9.65;7.32;;;11.00;99.90;;;;;;5142432;27;20055;-62
2021/09/20 00:37:48;;;;;;;12.30;7.28;;;11.00;99.90;;;;;;5150483;27;20399;-64
2021/09/20 00:40:24;;;;;;;12.85;7.50;;;11.00;99.90;;;;;;5150199;27;20401;-65
2021/09/20 00:42:51;;;;;;;12.63;7.67;;;10.90;99.90;;;;;;5145053;27;20062;-62
2021/09/20 00:45:20;;;;;;;12.85;7.15;;;10.90;99.90;;;;;;5149073;27;20157;-64
2021/09/20 00:47:46;;;;;;;10.70;7.25;;;10.80;99.90;;;;;;5149857;27;20126;-63
2021/09/20 00:50:13;;;;;;;10.15;8.00;;;10.70;99.90;;;;;;5118621;27;20074;-63
2021/09/20 00:52:39;;;;;;;10.52;7.43;;;10.80;99.90;;;;;;5128599;27;20415;-62
2021/09/20 00:55:15;;;;;;;11.20;7.82;;;10.70;99.90;;;;;;5129887;27;20055;-63
2021/09/20 00:57:48;;;;;;;12.23;8.15;;;10.70;99.90;;;;;;5125736;27;20084;-64
2021/09/20 01:00:16;;;;;;;8.95;7.30;;;10.60;99.90;;;;;;5122727;27;20503;-63
2021/09/20 01:02:51;;;;;;;11.05;8.05;;;10.60;99.90;;;;;;5128347;27;20047;-65
2021/09/20 01:05:22;;;;;;;10.05;7.80;;;10.60;99.90;;;;;;5129404;27;20058;-65
2021/09/20 01:07:54;;;;;;;10.30;6.85;;;10.60;99.90;;;;;;5128865;27;20107;-63
2021/09/20 01:10:20;;;;;;;11.10;7.72;;;10.50;99.90;;;;;;5129805;27;20047;-65
2021/09/20 01:12:55;;;;;;;11.20;8.30;;;10.50;99.90;;;;;;5127071;27;20793;-65
2021/09/20 01:15:22;;;;;;;10.52;8.23;;;10.50;99.90;;;;;;5124425;27;20138;-62
2021/09/20 01:17:48;;;;;;;10.90;8.02;;;10.50;99.90;;;;;;5128335;27;20493;-64
2021/09/20 01:20:23;;;;;;;11.23;7.95;;;10.40;99.90;;;;;;5119031;27;20082;-63
2021/09/20 01:23:05;;;;;;;13.93;9.13;;;10.40;99.90;;;;;;5121427;27;20058;-64
2021/09/20 01:25:35;;;;;;;14.82;7.90;;;10.30;99.90;;;;;;5117850;27;20047;-62
2021/09/20 01:28:03;;;;;;;9.27;7.25;;;10.30;99.90;;;;;;5118199;27;20499;-64
2021/09/20 01:30:34;;;;;;;13.20;8.05;;;10.30;99.90;;;;;;5122186;27;20064;-64
2021/09/20 01:33:01;;;;;;;12.90;8.90;;;10.30;99.90;;;;;;5121687;27;20411;-61
2021/09/20 01:35:30;;;;;;;13.32;8.40;;;10.30;99.90;;;;;;5117820;27;20077;-63
2021/09/20 01:38:00;;;;;;;11.02;8.15;;;10.20;99.90;;;;;;5112160;27;20055;-64
2021/09/20 01:40:28;;;;;;;11.90;8.32;;;10.20;99.90;;;;;;5114767;27;20057;-63
2021/09/20 01:42:54;;;;;;;12.32;8.48;;;10.20;99.90;;;;;;5120175;27;20149;-63
2021/09/20 01:45:23;;;;;;;14.45;8.30;;;10.20;99.90;;;;;;5123153;27;20756;-64
2021/09/20 01:47:56;;;;;;;12.75;8.55;;;10.10;99.90;;;;;;5122154;27;20130;-60
2021/09/20 01:50:28;;;;;;;11.50;8.45;;;10.10;99.90;;;;;;5132986;27;20069;-63
2021/09/20 01:52:54;;;;;;;10.82;8.30;;;10.10;99.90;;;;;;5148605;27;20084;-65
2021/09/20 01:55:24;;;;;;;12.60;8.80;;;10.10;99.90;;;;;;5143250;27;20502;-63
2021/09/20 01:57:53;;;;;;;12.25;8.75;;;10.00;99.90;;;;;;5143822;27;20046;-65
2021/09/20 02:00:20;;;;;;;11.07;8.43;;;10.00;99.90;;;;;;5139521;27;20482;-64
2021/09/20 02:02:49;;;;;;;12.75;9.15;;;10.00;99.90;;;;;;5139918;27;20187;-63
2021/09/20 02:05:18;;;;;;;12.73;9.48;;;10.00;99.90;;;;;;5142113;27;20172;-64
2021/09/20 02:07:45;;;;;;;11.43;9.00;;;10.00;99.90;;;;;;5142013;27;20418;-62
2021/09/20 02:10:16;;;;;;;11.80;9.52;;;10.00;99.90;;;;;;5138715;27;20046;-65
2021/09/20 02:12:43;;;;;;;14.90;9.55;;;10.00;99.90;;;;;;5138420;27;20717;-64
2021/09/20 02:15:10;;;;;;;12.70;9.45;;;9.90;99.90;;;;;;5138087;27;20072;-63
2021/09/20 02:17:39;;;;;;;13.45;9.85;;;9.90;99.90;;;;;;5142721;27;20157;-64
2021/09/20 02:20:07;;;;;;;14.05;9.65;;;10.00;99.90;;;;;;5136757;27;20054;-65
2021/09/20 02:22:36;;;;;;;11.68;9.50;;;9.90;99.90;;;;;;5145395;27;20054;-63
2021/09/20 02:25:07;;;;;;;12.85;10.38;;;9.90;99.90;;;;;;5147006;27;20056;-62
2021/09/20 02:27:37;;;;;;;10.77;9.48;;;9.90;99.90;;;;;;5146524;27;20055;-64
2021/09/20 02:30:05;;;;;;;15.90;9.63;;;9.80;99.90;;;;;;5135836;27;20074;-64
2021/09/20 02:32:36;;;;;;;16.58;10.38;;;9.80;99.90;;;;;;5137796;27;20716;-63
2021/09/20 02:35:04;;;;;;;13.50;10.05;;;9.80;99.90;;;;;;5136765;27;20104;-64
2021/09/20 02:37:36;;;;;;;14.80;10.20;;;9.80;99.90;;;;;;5137920;27;20498;-62
2021/09/20 02:40:08;;;;;;;14.18;10.02;;;9.80;99.90;;;;;;5144948;27;20126;-64
2021/09/20 02:42:37;;;;;;;12.57;9.63;;;9.70;99.90;;;;;;5142220;27;20047;-64
2021/09/20 02:45:10;;;;;;;12.82;10.23;;;9.70;99.90;;;;;;5142383;27;20111;-63
2021/09/20 02:47:36;;;;;;;13.32;10.25;;;9.70;99.90;;;;;;5123695;27;20055;-64
2021/09/20 02:50:10;;;;;;;13.98;10.00;;;9.70;99.90;;;;;;5102860;27;20059;-64
2021/09/20 02:52:39;;;;;;;13.38;10.50;;;9.70;99.90;;;;;;5125721;27;20047;-65
2021/09/20 02:55:07;;;;;;;14.52;10.73;;;9.60;99.90;;;;;;5127607;27;20675;-62
2021/09/20 02:57:37;;;;;;;14.63;10.75;;;9.60;99.90;;;;;;5109940;28;20050;-64
2021/09/20 03:00:06;;;;;;;19.50;11.65;;;9.60;99.90;;;;;;5113053;28;20047;-63
2021/09/20 03:02:39;;;;;;;17.77;11.25;;;9.60;99.90;;;;;;5119653;28;20051;-60
2021/09/20 03:05:08;;;;;;;14.10;11.27;;;9.50;99.90;;;;;;5117762;27;20048;-65
2021/09/20 03:07:37;;;;;;;14.50;11.18;;;9.50;99.90;;;;;;5120945;28;20082;-64
2021/09/20 03:10:09;;;;;;;13.27;10.10;;;9.60;99.90;;;;;;5120594;28;20403;-64
2021/09/20 03:12:35;;;;;;;;;;;9.60;99.90;;;;;;5120447;27;20047;-64
2021/09/20 03:15:10;;;;;;;14.18;11.05;;;9.50;99.90;;;;;;5100760;28;19923;-63
2021/09/20 03:17:44;;;;;;;12.23;10.73;;;9.50;99.90;;;;;;5119130;28;20051;-63
2021/09/20 03:20:14;;;;;;;19.17;12.05;;;9.50;99.90;;;;;;5116070;28;20133;-63
2021/09/20 03:22:41;;;;;;;14.82;12.07;;;9.50;99.90;;;;;;5113618;27;20047;-64
2021/09/20 03:25:09;;;;;;;16.38;12.10;;;9.50;99.90;;;;;;5115811;27;20098;-62
2021/09/20 03:27:36;;;;;;;15.05;12.38;;;9.60;99.90;;;;;;5118205;27;20473;-62
2021/09/20 03:30:04;;;;;;;16.25;12.90;;;9.60;99.90;;;;;;5117168;27;20134;-64
2021/09/20 03:32:33;;;;;;;16.75;12.88;;;9.60;99.90;;;;;;5122022;27;20058;-64
2021/09/20 03:34:59;;;;;;;15.35;12.50;;;9.60;99.90;;;;;;5125324;27;20056;-63
2021/09/20 03:37:26;;;;;;;16.52;11.50;;;9.60;99.90;;;;;;5124306;27;20394;-64
2021/09/20 03:39:58;;;;;;;18.02;14.75;;;9.60;99.90;;;;;;5131816;27;20078;-64
2021/09/20 03:42:26;;;;;;;13.98;12.45;;;9.60;99.90;;;;;;5129403;27;20047;-64
2021/09/20 03:44:55;;;;;;;20.13;13.05;;;9.70;99.90;;;;;;5127860;27;20098;-61
2021/09/20 03:47:24;;;;;;;16.17;11.90;;;9.70;99.90;;;;;;5129887;27;20054;-63
2021/09/20 03:49:56;;;;;;;16.10;13.75;;;9.70;99.90;;;;;;5114633;27;20143;-63
2021/09/20 03:52:28;;;;;;;13.90;12.32;;;9.70;99.90;;;;;;5114968;27;20676;-63
2021/09/20 03:54:57;;;;;;;17.25;13.60;;;9.80;99.90;;;;;;5131049;27;20091;-62
2021/09/20 03:57:27;;;;;;;;;;;9.80;99.90;;;;;;5129382;27;20082;-63
2021/09/20 03:59:59;;;;;;;13.48;12.07;;;9.80;99.90;;;;;;5130740;27;19924;-63
2021/09/20 04:02:31;;;;;;;17.35;13.20;;;9.80;99.90;;;;;;5130886;27;20061;-63
2021/09/20 04:04:58;;;;;;;17.35;13.68;;;9.80;99.90;;;;;;5123385;27;20054;-62
2021/09/20 04:07:24;;;;;;;15.95;12.63;;;9.80;99.90;;;;;;5120030;27;20147;-64
2021/09/20 04:09:51;;;;;;;18.77;13.77;;;9.80;99.90;;;;;;5119683;27;20055;-64
2021/09/20 04:12:23;;;;;;;15.38;13.30;;;9.80;99.90;;;;;;5130682;27;20055;-64
2021/09/20 04:14:59;;;;;;;17.13;12.82;;;9.80;99.90;;;;;;5128181;27;20118;-63
2021/09/20 04:17:33;;;;;;;17.13;12.48;;;9.80;99.90;;;;;;5128821;27;20062;-62
2021/09/20 04:20:04;;;;;;;15.82;13.52;;;9.90;99.90;;;;;;5130163;27;20111;-64
2021/09/20 04:22:31;;;;;;;14.55;13.02;;;9.90;99.90;;;;;;5129344;27;20089;-62
2021/09/20 04:24:58;;;;;;;15.38;12.50;;;9.90;99.90;;;;;;5130064;27;20058;-60
2021/09/20 04:27:29;;;;;;;16.00;13.45;;;10.00;99.90;;;;;;5130919;27;20046;-62
2021/09/20 04:29:55;;;;;;;17.73;13.98;;;10.00;99.90;;;;;;5129786;27;20562;-63
2021/09/20 04:32:35;;;;;;;20.35;13.55;;;10.00;99.90;;;;;;5129921;27;20055;-61
2021/09/20 04:35:08;;;;;;;14.68;12.18;;;10.00;99.90;;;;;;5129043;27;20047;-63
2021/09/20 04:37:35;;;;;;;16.55;13.40;;;10.10;99.90;;;;;;5121121;27;20091;-63
2021/09/20 04:40:08;;;;;;;13.75;12.20;;;10.10;99.90;;;;;;5121143;27;20047;-62
2021/09/20 04:42:37;;;;;;;15.57;13.02;;;10.20;99.90;;;;;;5116362;27;20578;-64
2021/09/20 04:45:08;;;;;;;15.45;13.13;;;10.20;99.90;;;;;;5128562;27;20562;-64
2021/09/20 04:47:34;;;;;;;15.18;12.93;;;10.20;99.90;;;;;;5127786;27;20051;-64
2021/09/20 04:50:04;;;;;;;16.38;12.88;;;10.30;99.90;;;;;;5136406;27;20844;-65
2021/09/20 04:52:33;;;;;;;15.55;12.27;;;10.30;99.90;;;;;;5150375;27;20054;-64
2021/09/20 04:55:09;;;;;;;15.30;13.05;;;10.30;99.90;;;;;;5130976;27;20133;-64
2021/09/20 04:57:36;;;;;;;16.23;12.55;;;10.30;99.90;;;;;;5132456;27;20555;-64
2021/09/20 05:00:08;;;;;;;17.33;14.85;;;10.40;99.90;;;;;;5130296;27;20054;-62
2021/09/20 05:02:34;;;;;;;15.77;12.82;;;10.40;99.90;;;;;;5141459;27;20062;-65
2021/09/20 05:05:07;;;;;;;17.13;13.30;;;10.40;99.90;;;;;;5149916;27;20042;-62
2021/09/20 05:07:35;;;;;;;17.10;13.07;;;10.50;99.90;;;;;;5142569;27;20051;-64
2021/09/20 05:10:03;;;;;;;14.13;12.63;;;10.50;99.90;;;;;;5142290;27;20122;-58
2021/09/20 05:12:32;;;;;;;15.57;12.70;;;10.60;99.90;;;;;;5144404;27;20142;-58
2021/09/20 05:15:00;;;;;;;18.55;13.40;;;10.70;99.90;;;;;;5144164;27;20595;-58
2021/09/20 05:17:26;;;;;;;16.60;12.43;;;10.70;99.90;;;;;;5123889;27;20736;-59
2021/09/20 05:19:55;;;;;;;17.90;13.80;;;10.80;99.90;;;;;;5148954;27;20117;-58
2021/09/20 05:22:24;;;;;;;15.43;12.55;;;10.80;99.90;;;;;;5150217;27;20054;-59
2021/09/20 05:24:53;;;;;;;16.80;12.63;;;10.90;99.90;;;;;;5145842;27;20088;-59
2021/09/20 05:27:19;;;;;;;15.63;12.45;;;10.90;99.90;;;;;;5149675;27;20058;-58
2021/09/20 05:29:48;;;;;;;15.60;12.73;;;10.90;99.90;;;;;;5146431;27;20062;-58
2021/09/20 05:32:14;;;;;;;14.73;12.20;;;11.00;99.90;;;;;;5148200;27;20082;-58
2021/09/20 05:34:46;;;;;;;14.93;12.10;;;11.00;99.90;;;;;;5144604;27;20050;-57
2021/09/20 05:37:12;;;;;;;15.75;13.18;;;11.10;99.90;;;;;;5149630;27;20050;-58
2021/09/20 05:39:40;;;;;;;16.25;12.48;;;11.10;99.90;;;;;;5147873;27;20114;-58
2021/09/20 05:42:07;;;;;;;13.85;11.63;;;11.10;99.90;;;;;;5149575;27;20106;-58
2021/09/20 05:44:33;;;;;;;14.85;12.80;;;11.20;99.90;;;;;;5148904;27;20081;-58
2021/09/20 05:46:59;;;;;;;13.30;11.90;;;11.30;99.90;;;;;;5146833;27;20055;-58
2021/09/20 05:49:28;;;;;;;13.00;11.02;;;11.30;99.90;;;;;;5148445;27;20058;-59
2021/09/20 05:51:55;;;;;;;14.57;11.75;;;11.40;99.90;;;;;;5127415;27;20055;-59
2021/09/20 05:54:21;;;;;;;14.32;12.13;;;11.40;99.90;;;;;;5145815;27;20665;-58
2021/09/20 05:56:47;;;;;;;25.20;21.02;;;11.40;99.90;;;;;;5111476;27;20050;-57
2021/09/20 05:59:13;;;;;;;16.27;13.98;;;11.50;99.90;;;;;;5144088;27;20051;-57
2021/09/20 06:01:40;;;;;;;22.45;18.33;;;11.60;99.90;;;;;;5146194;27;20566;-58
2021/09/20 06:04:09;;;;;;;18.25;14.38;;;11.60;99.90;;;;;;5148484;27;20047;-58
2021/09/20 06:06:41;;;;;;;16.35;11.52;;;11.70;99.90;;;;;;5145594;27;20487;-58
2021/09/20 06:09:07;;;;;;;18.70;16.05;;;11.70;99.90;;;;;;5147596;27;20050;-58
2021/09/20 06:11:39;;;;;;;19.60;17.55;;;11.70;99.90;;;;;;5146288;27;20051;-58
2021/09/20 06:14:10;;;;;;;16.75;13.05;;;11.80;99.90;;;;;;5146955;27;20043;-58
2021/09/20 06:16:36;;;;;;;16.70;12.80;;;11.80;99.90;;;;;;5142103;27;20051;-60
2021/09/20 06:19:05;;;;;;;25.08;19.63;;;11.90;99.90;;;;;;5140092;27;20081;-58
2021/09/20 06:21:35;;;;;;;27.15;22.58;;;11.90;99.90;;;;;;5122357;27;20137;-58
2021/09/20 06:24:04;;;;;;;28.17;23.08;;;12.10;99.90;;;;;;5120543;27;20430;-58
2021/09/20 06:26:36;;;;;;;34.00;27.67;;;12.10;99.90;;;;;;5144433;27;20111;-58
2021/09/20 06:29:06;;;;;;;14.40;11.52;;;12.10;99.90;;;;;;5147091;27;20122;-59
2021/09/20 06:31:33;;;;;;;29.45;23.23;;;12.20;99.90;;;;;;5145512;27;20047;-59
2021/09/20 06:34:02;;;;;;;26.38;21.75;;;12.20;99.90;;;;;;5139579;27;20057;-59
2021/09/20 06:36:31;;;;;;;22.73;17.73;;;12.20;99.90;;;;;;5142314;27;20101;-59
2021/09/20 06:39:00;;;;;;;14.70;10.18;;;12.30;99.90;;;;;;5148387;27;20812;-58
2021/09/20 06:41:30;;;;;;;14.75;10.98;;;12.40;99.90;;;;;;5144599;27;20053;-58
2021/09/20 06:43:58;;;;;;;19.60;12.02;;;12.40;99.90;;;;;;5129425;27;20093;-60
2021/09/20 06:46:26;;;;;;;46.90;37.67;;;12.50;99.90;;;;;;5144318;27;20046;-59
2021/09/20 06:48:57;;;;;;;127.53;112.57;;;12.60;99.90;;;;;;5149568;27;20376;-59
2021/09/20 06:51:24;;;;;;;18.98;13.48;;;12.60;99.90;;;;;;5149218;27;20440;-58
2021/09/20 06:53:55;;;;;;;22.42;17.25;;;12.70;99.90;;;;;;5132811;27;20434;-59
2021/09/20 06:56:22;;;;;;;20.45;15.80;;;12.80;99.90;;;;;;5146204;27;20115;-59
2021/09/20 06:58:48;;;;;;;11.02;8.80;;;12.80;99.90;;;;;;5143409;27;20051;-58
2021/09/20 07:01:15;;;;;;;19.20;13.70;;;12.80;99.90;;;;;;5128856;27;20063;-58
2021/09/20 07:03:44;;;;;;;18.55;16.38;;;12.90;99.90;;;;;;5142113;27;20129;-59
2021/09/20 07:06:12;;;;;;;12.98;11.60;;;12.90;99.90;;;;;;5126448;27;20490;-59
2021/09/20 07:08:38;;;;;;;12.07;9.25;;;13.00;99.90;;;;;;5124992;27;20046;-58
2021/09/20 07:11:04;;;;;;;13.68;10.63;;;13.10;99.90;;;;;;5140941;27;20050;-59
2021/09/20 07:13:30;;;;;;;17.13;15.02;;;13.20;99.90;;;;;;5142908;27;20131;-59
2021/09/20 07:15:57;;;;;;;13.90;10.90;;;13.20;99.90;;;;;;5147464;27;20134;-60
2021/09/20 07:18:23;;;;;;;11.25;9.43;;;13.30;99.90;;;;;;5148540;27;20050;-62
2021/09/20 07:20:51;;;;;;;13.93;8.30;;;13.40;99.90;;;;;;5147022;27;20495;-66
2021/09/20 07:23:18;;;;;;;12.52;7.80;;;13.40;99.90;;;;;;5140169;27;20055;-63
2021/09/20 07:25:47;;;;;;;13.38;11.27;;;13.40;99.90;;;;;;5139959;27;20072;-65
2021/09/20 07:28:19;;;;;;;12.20;8.05;;;13.50;99.90;;;;;;5122831;28;20052;-63
2021/09/20 07:30:48;;;;;;;10.57;8.23;;;13.50;99.90;;;;;;5146942;27;20058;-64
2021/09/20 07:33:17;;;;;;;9.30;6.90;;;13.60;99.90;;;;;;5139425;27;20055;-65
2021/09/20 07:35:44;;;;;;;10.48;8.70;;;13.80;99.90;;;;;;5144369;27;20050;-64
2021/09/20 07:38:14;;;;;;;20.55;18.40;;;13.90;99.90;;;;;;5123101;27;20818;-63
2021/09/20 07:40:43;;;;;;;8.23;6.78;;;14.10;99.90;;;;;;5146795;27;20049;-63
2021/09/20 07:43:11;;;;;;;11.43;7.80;;;14.10;99.90;;;;;;5128636;27;20052;-65
2021/09/20 07:45:39;;;;;;;8.50;6.80;;;14.30;99.90;;;;;;5143357;27;20118;-65
2021/09/20 07:48:13;;;;;;;19.30;17.33;;;14.40;99.90;;;;;;5129529;27;20070;-62
2021/09/20 07:50:39;;;;;;;8.57;6.47;;;14.50;99.90;;;;;;5124772;27;20926;-64
2021/09/20 07:53:08;;;;;;;8.82;6.82;;;14.60;99.90;;;;;;5144551;27;20086;-65
2021/09/20 07:55:39;;;;;;;14.20;9.48;;;14.70;99.90;;;;;;5144465;27;20430;-65
2021/09/20 07:58:10;;;;;;;11.63;8.63;;;14.80;99.90;;;;;;5143807;27;20069;-63
2021/09/20 08:00:40;;;;;;;7.72;6.38;;;14.70;99.90;;;;;;5147313;27;20057;-64
2021/09/20 08:03:09;;;;;;;10.57;8.00;;;14.70;99.90;;;;;;5143529;27;20051;-66
2021/09/20 08:05:42;;;;;;;8.68;5.88;;;14.80;99.90;;;;;;5125441;27;20055;-66
2021/09/20 08:08:09;;;;;;;7.60;5.82;;;14.80;99.90;;;;;;5131356;27;20422;-61
2021/09/20 08:10:36;;;;;;;9.45;6.22;;;14.90;99.90;;;;;;5140372;27;20050;-66
2021/09/20 08:13:13;;;;;;;8.63;6.03;;;14.90;99.90;;;;;;5152409;27;20051;-62
2021/09/20 08:15:41;;;;;;;9.13;6.55;;;15.00;99.90;;;;;;5149733;27;20050;-62
2021/09/20 08:18:15;;;;;;;11.45;9.50;;;15.10;99.90;;;;;;5149269;27;20054;-63
2021/09/20 08:20:45;;;;;;;17.13;13.82;;;15.20;99.90;;;;;;5132750;27;20418;-64
2021/09/20 08:23:13;;;;;;;15.98;11.40;;;15.40;99.90;;;;;;5143473;27;20086;-65
2021/09/20 08:25:40;;;;;;;7.68;5.35;;;15.30;99.90;;;;;;5147132;27;20075;-65
2021/09/20 08:28:11;;;;;;;7.93;6.18;;;15.50;99.90;;;;;;5149644;27;20106;-63
2021/09/20 08:30:40;;;;;;;8.32;5.80;;;15.50;99.90;;;;;;5142065;27;20054;-61
2021/09/20 08:33:07;;;;;;;6.65;4.95;;;15.50;99.90;;;;;;5149538;27;20091;-62
2021/09/20 08:35:35;;;;;;;7.82;4.88;;;15.60;99.90;;;;;;5141390;27;20081;-64
2021/09/20 08:38:02;;;;;;;11.15;7.68;;;15.70;99.90;;;;;;5135711;27;20088;-61
2021/09/20 08:40:31;;;;;;;14.70;11.63;;;15.70;99.90;;;;;;5131031;27;20081;-65
2021/09/20 08:43:01;;;;;;;14.88;10.73;;;15.80;99.90;;;;;;5147396;27;20066;-64
2021/09/20 08:45:31;;;;;;;10.18;7.90;;;15.80;99.90;;;;;;5150306;27;20057;-64
2021/09/20 08:48:01;;;;;;;12.80;8.38;;;15.90;99.90;;;;;;5149696;27;20069;-64
2021/09/20 08:50:43;;;;;;;8.95;5.07;;;15.90;99.90;;;;;;5148743;27;20058;-64
2021/09/20 08:53:10;;;;;;;7.78;4.63;;;15.90;99.90;;;;;;5148854;27;20491;-65
2021/09/20 08:55:39;;;;;;;6.22;3.47;;;16.00;99.90;;;;;;5151344;27;20061;-64
2021/09/20 08:58:12;;;;;;;7.53;4.18;;;16.20;99.90;;;;;;5145109;27;20074;-64
2021/09/20 09:00:43;;;;;;;11.10;7.97;;;16.20;99.90;;;;;;5150593;27;20069;-63
2021/09/20 09:03:09;;;;;;;8.32;3.78;;;16.50;99.90;;;;;;5147339;27;20114;-64
2021/09/20 09:05:36;;;;;;;22.00;17.38;;;16.60;99.90;;;;;;5147119;27;20063;-65
2021/09/20 09:08:06;;;;;;;8.00;5.03;;;16.80;99.90;;;;;;5149578;27;20685;-65
2021/09/20 09:10:40;;;;;;;15.45;12.98;;;17.00;99.90;;;;;;5150016;27;20097;-64
2021/09/20 09:13:07;;;;;;;9.85;7.13;;;16.90;99.90;;;;;;5148185;27;20043;-63
2021/09/20 09:15:37;;;;;;;5.43;3.75;;;17.00;99.90;;;;;;5148821;27;20139;-65
2021/09/20 09:18:06;;;;;;;6.60;3.10;;;17.10;99.90;;;;;;5147515;27;20055;-52
2021/09/20 09:20:39;;;;;;;5.28;2.90;;;17.20;99.90;;;;;;5148883;27;20061;-65
2021/09/20 09:23:14;;;;;;;7.28;5.13;;;17.30;99.90;;;;;;5148788;27;20082;-64
2021/09/20 09:25:46;;;;;;;5.28;4.18;;;17.30;99.90;;;;;;5149657;27;20058;-63
2021/09/20 09:28:18;;;;;;;3.88;2.83;;;17.40;99.90;;;;;;5141228;27;20051;-63
2021/09/20 09:30:53;;;;;;;7.45;6.47;;;17.50;99.90;;;;;;5145909;27;20144;-65
2021/09/20 09:33:37;;;;;;;7.40;3.15;;;17.50;99.90;;;;;;5145050;27;20411;-64
2021/09/20 09:36:05;;;;;;;27.65;22.92;;;17.70;99.90;;;;;;5147061;27;20442;-59
2021/09/20 09:38:55;;;;;;;14.10;10.63;;;17.90;99.90;;;;;;5138082;27;20080;-62
2021/09/20 09:41:39;;;;;;;19.17;17.05;;;18.00;99.90;;;;;;5136772;27;20062;-62
2021/09/20 09:44:09;;;;;;;17.58;15.68;;;18.00;97.90;;;;;;5150352;27;20050;-59
2021/09/20 09:46:43;;;;;;;7.90;3.25;;;17.90;99.90;;;;;;5150080;27;20038;-58
2021/09/20 09:49:20;;;;;;;10.63;5.00;;;17.90;98.80;;;;;;5147349;27;20770;-59
2021/09/20 09:52:03;;;;;;;13.02;10.85;;;18.00;98.50;;;;;;5143438;27;20043;-60
2021/09/20 09:54:35;;;;;;;5.93;3.45;;;18.20;95.90;;;;;;5149014;27;20047;-60
2021/09/20 09:57:15;;;;;;;8.95;7.20;;;18.50;91.00;;;;;;5150215;27;20058;-61
2021/09/20 09:59:42;;;;;;;9.10;6.32;;;18.40;84.70;;;;;;5148210;27;20050;-57
2021/09/20 10:02:22;;;;;;;4.30;2.40;;;18.50;82.90;;;;;;5150602;27;20058;-60
2021/09/20 10:04:52;;;;;;;5.50;2.47;;;18.50;79.40;;;;;;5149960;27;20430;-60
2021/09/20 10:07:29;;;;;;;6.70;2.78;;;18.60;77.80;;;;;;5149228;27;20111;-59
2021/09/20 10:09:58;;;;;;;3.80;2.60;;;18.90;82.00;;;;;;5149589;27;20046;-60
2021/09/20 10:12:27;;;;;;;4.57;2.00;;;19.00;76.50;;;;;;5150423;27;20069;-59
2021/09/20 10:14:58;;;;;;;4.75;2.47;;;19.40;73.30;;;;;;5148980;27;20414;-60
2021/09/20 10:17:29;;;;;;;4.22;2.65;;;20.60;69.80;;;;;;5137483;27;20062;-61
2021/09/20 10:20:02;;;;;;;5.13;3.28;;;21.80;67.70;;;;;;5146741;27;20058;-61
2021/09/20 10:22:29;;;;;;;5.25;2.33;;;22.80;61.50;;;;;;5146944;27;20054;-60
2021/09/20 10:25:06;;;;;;;4.38;2.90;;;23.20;57.20;;;;;;5142299;27;20054;-63
2021/09/20 10:27:33;;;;;;;8.55;6.80;;;23.70;52.70;;;;;;5121494;27;20053;-61
2021/09/20 10:30:14;;;;;;;16.35;12.15;;;24.30;54.60;;;;;;5139589;27;20047;-60
2021/09/20 10:32:44;;;;;;;6.53;5.13;;;24.40;47.60;;;;;;5144118;27;20390;-60
2021/09/20 10:35:37;;;;;;;4.20;2.80;;;24.70;50.80;;;;;;5149960;27;20082;-60
2021/09/20 10:38:26;;;;;;;5.55;3.70;;;24.70;47.60;;;;;;5125944;27;20418;-60
2021/09/20 10:41:24;;;;;;;5.53;3.33;;;24.40;43.70;;;;;;5143428;27;20047;-59
2021/09/20 10:43:59;;;;;;;5.13;1.25;;;23.80;43.50;;;;;;5120714;27;20054;-63
2021/09/20 10:46:28;;;;;;;3.35;1.45;;;24.10;43.80;;;;;;5141294;27;20070;-60
2021/09/20 10:48:59;;;;;;;2.55;1.23;;;24.20;45.20;;;;;;5137846;27;20675;-64
2021/09/20 10:51:40;;;;;;;3.58;2.35;;;24.40;44.40;;;;;;5140848;27;20487;-63
2021/09/20 10:54:15;;;;;;;2.58;1.30;;;24.50;43.60;;;;;;5141633;27;20143;-64
2021/09/20 10:56:52;;;;;;;3.55;1.75;;;25.10;45.90;;;;;;5136692;27;20459;-63
2021/09/20 10:59:25;;;;;;;2.50;1.83;;;24.70;43.90;;;;;;5137714;27;20074;-61
2021/09/20 11:01:59;;;;;;;3.33;1.50;;;24.80;41.80;;;;;;5141646;27;20078;-64
2021/09/20 11:04:37;;;;;;;2.42;1.38;;;25.20;40.30;;;;;;5120446;27;20089;-64
2021/09/20 11:07:15;;;;;;;2.17;1.50;;;25.10;39.40;;;;;;5139562;27;20051;-64
2021/09/20 11:09:51;;;;;;;2.85;1.85;;;24.70;40.40;;;;;;5115656;27;20095;-64
2021/09/20 11:12:20;;;;;;;3.40;1.60;;;25.10;41.30;;;;;;5140575;27;20050;-63
2021/09/20 11:15:06;;;;;;;2.28;0.90;;;24.40;39.70;;;;;;5141475;27;20065;-63
2021/09/20 11:17:38;;;;;;;2.50;0.90;;;23.40;42.10;;;;;;5141282;27;20150;-65
2021/09/20 11:20:37;;;;;;;2.75;1.10;;;23.20;43.00;;;;;;5140534;27;20102;-64
2021/09/20 11:23:22;;;;;;;4.82;1.00;;;22.20;43.40;;;;;;5139031;27;20137;-63
2021/09/20 11:26:19;;;;;;;5.57;1.50;;;21.60;43.90;;;;;;5142551;27;20058;-63
2021/09/20 11:28:52;;;;;;;4.00;1.50;;;21.10;44.70;;;;;;5102070;27;20066;-65
2021/09/20 11:31:20;;;;;;;1.58;1.20;;;20.40;45.50;;;;;;5139074;27;20054;-63
2021/09/20 11:33:51;;;;;;;4.25;1.20;;;20.30;45.90;;;;;;5105361;27;20530;-62
2021/09/20 11:36:35;;;;;;;2.22;1.00;;;20.00;47.20;;;;;;5136815;27;20058;-64
2021/09/20 11:39:44;;;;;;;2.63;1.15;;;19.90;47.70;;;;;;5121768;27;20054;-63
2021/09/20 11:42:15;;;;;;;2.50;1.27;;;19.50;48.20;;;;;;5139865;27;20051;-62
2021/09/20 11:44:56;;;;;;;4.10;1.38;;;19.20;48.80;;;;;;5141759;27;20487;-64
2021/09/20 11:47:28;;;;;;;2.50;1.25;;;19.20;50.40;;;;;;5142611;27;20051;-64
2021/09/20 11:50:13;;;;;;;3.15;1.10;;;19.40;50.90;;;;;;5144147;27;20046;-65
2021/09/20 11:52:51;;;;;;;3.20;1.40;;;19.20;50.30;;;;;;5142423;27;20483;-65
2021/09/20 11:55:17;;;;;;;5.45;1.80;;;18.80;49.50;;;;;;5124836;27;20107;-64
2021/09/20 11:57:48;;;;;;;3.47;1.38;;;18.90;50.60;;;;;;5146637;27;20122;-62
2021/09/20 12:00:17;;;;;;;14.77;11.70;;;18.70;51.60;;;;;;5126746;27;20170;-67
2021/09/20 12:02:53;;;;;;;7.80;4.65;;;18.70;51.20;;;;;;5145346;27;20080;-67
2021/09/20 12:05:41;;;;;;;10.27;8.60;;;18.60;51.00;;;;;;5144345;27;20126;-64
2021/09/20 12:08:14;;;;;;;21.13;16.48;;;18.60;50.50;;;;;;5142410;27;20067;-64
2021/09/20 12:10:51;;;;;;;6.38;3.38;;;18.70;51.10;;;;;;5147451;27;20049;-64
2021/09/20 12:13:27;;;;;;;5.05;3.08;;;18.70;51.60;;;;;;5149545;27;20050;-65
2021/09/20 12:16:03;;;;;;;3.45;1.95;;;18.50;51.00;;;;;;5149656;27;20091;-65
2021/09/20 12:18:39;;;;;;;4.05;3.00;;;18.40;50.20;;;;;;5106156;27;20156;-65
2021/09/20 12:21:08;;;;;;;5.60;3.30;;;18.30;51.10;;;;;;5145324;27;20123;-65
2021/09/20 12:23:40;;;;;;;12.07;9.80;;;18.20;51.70;;;;;;5132906;27;20054;-64
2021/09/20 12:26:14;;;;;;;2.95;1.52;;;18.20;52.40;;;;;;5144108;27;20649;-63
2021/09/20 12:28:53;;;;;;;6.95;3.60;;;18.20;52.80;;;;;;5144393;27;20046;-65
2021/09/20 12:31:22;;;;;;;4.05;2.53;;;18.10;53.50;;;;;;5128390;27;20050;-65
2021/09/20 12:34:08;;;;;;;6.03;3.15;;;18.00;53.40;;;;;;5150383;27;20418;-64
2021/09/20 12:36:43;;;;;;;3.45;1.67;;;18.00;54.50;;;;;;5144037;27;20475;-64
2021/09/20 12:39:25;;;;;;;3.33;1.50;;;17.90;54.00;;;;;;5150684;27;20046;-65
2021/09/20 12:41:57;;;;;;;2.88;2.00;;;17.90;55.20;;;;;;5150322;27;20050;-64
2021/09/20 12:44:49;;;;;;;3.03;1.60;;;17.90;54.70;;;;;;5147642;27;20611;-64
2021/09/20 12:47:29;;;;;;;11.27;8.80;;;18.00;56.80;;;;;;5132354;27;20054;-65
2021/09/20 12:50:10;;;;;;;8.77;3.67;;;18.00;57.10;;;;;;5149409;27;20051;-64
2021/09/20 12:52:42;;;;;;;15.73;12.48;;;18.00;58.00;;;;;;5149122;27;20047;-64
2021/09/20 12:55:09;;;;;;;27.08;24.20;;;17.90;56.70;;;;;;5149902;27;20106;-64
2021/09/20 12:57:36;;;;;;;5.97;3.17;;;17.90;57.70;;;;;;5150765;27;20111;-62